Time;durP1;ratioP1;P1;durP2;ratioP2;P2;SDS_P1;SDS_P2;PMS_P1;PMS_P2;Temp;Humidity;BMP_temperature;BMP_pressure;BME280_temperature;BME280_humidity;BME280_pressure;Samples;Min_cycle;Max_cycle;Signal;HPM_P1;HPM_P2
2019/06/21 00:00:47;;;;;;;5.3;3.7;;;;;;;;;;;;;
2019/06/21 00:03:11;;;;;;;6.5;3.8;;;;;;;;;;;;;
2019/06/21 00:05:33;;;;;;;5.7;3.4;;;;;;;;;;;;;
2019/06/21 00:07:59;;;;;;;6.1;4;;;;;;;;;;;;;
2019/06/21 00:10:24;;;;;;;9.8;4.2;;;;;;;;;;;;;
2019/06/21 00:12:48;;;;;;;5.8;4;;;;;;;;;;;;;
2019/06/21 00:15:17;;;;;;;5.3;3.5;;;;;;;;;;;;;
2019/06/21 00:17:40;;;;;;;4.8;3.1;;;;;;;;;;;;;
2019/06/21 00:20:06;;;;;;;4.6;3.2;;;;;;;;;;;;;
2019/06/21 00:22:32;;;;;;;5;3.4;;;;;;;;;;;;;
2019/06/21 00:25:01;;;;;;;5.1;3.1;;;;;;;;;;;;;
2019/06/21 00:27:24;;;;;;;5.9;3.5;;;;;;;;;;;;;
2019/06/21 00:29:49;;;;;;;5.6;3.4;;;;;;;;;;;;;
2019/06/21 00:32:18;;;;;;;7;4.1;;;;;;;;;;;;;
2019/06/21 00:34:40;;;;;;;5;3.4;;;;;;;;;;;;;
2019/06/21 00:37:06;;;;;;;5.9;3.6;;;;;;;;;;;;;
2019/06/21 00:39:32;;;;;;;4.5;3.3;;;;;;;;;;;;;
2019/06/21 00:41:59;;;;;;;6.5;3.4;;;;;;;;;;;;;
2019/06/21 00:44:26;;;;;;;5.9;3.4;;;;;;;;;;;;;
2019/06/21 00:46:53;;;;;;;6.3;3.8;;;;;;;;;;;;;
2019/06/21 00:49:17;;;;;;;5.7;3.5;;;;;;;;;;;;;
2019/06/21 00:51:42;;;;;;;6.3;3.6;;;;;;;;;;;;;
2019/06/21 00:54:07;;;;;;;5.7;3.8;;;;;;;;;;;;;
2019/06/21 00:56:36;;;;;;;4.8;3.8;;;;;;;;;;;;;
2019/06/21 00:59:01;;;;;;;4.5;3.5;;;;;;;;;;;;;
2019/06/21 01:01:29;;;;;;;4.8;3.3;;;;;;;;;;;;;
2019/06/21 01:03:53;;;;;;;6.1;3.4;;;;;;;;;;;;;
2019/06/21 01:06:18;;;;;;;4.1;3.1;;;;;;;;;;;;;
2019/06/21 01:08:43;;;;;;;4.8;3;;;;;;;;;;;;;
2019/06/21 01:11:12;;;;;;;5;3;;;;;;;;;;;;;
2019/06/21 01:13:34;;;;;;;7;3.1;;;;;;;;;;;;;
2019/06/21 01:15:59;;;;;;;4.4;2.8;;;;;;;;;;;;;
2019/06/21 01:18:24;;;;;;;6.6;3.4;;;;;;;;;;;;;
2019/06/21 01:20:51;;;;;;;4.6;3.3;;;;;;;;;;;;;
2019/06/21 01:23:14;;;;;;;3.5;3.2;;;;;;;;;;;;;
2019/06/21 01:25:42;;;;;;;5.7;3.5;;;;;;;;;;;;;
2019/06/21 01:28:11;;;;;;;7.1;3.3;;;;;;;;;;;;;
2019/06/21 01:30:34;;;;;;;4.9;3.1;;;;;;;;;;;;;
2019/06/21 01:32:58;;;;;;;5.6;3.2;;;;;;;;;;;;;
2019/06/21 01:35:23;;;;;;;5.1;3;;;;;;;;;;;;;
2019/06/21 01:37:50;;;;;;;7.1;3.4;;;;;;;;;;;;;
2019/06/21 01:40:17;;;;;;;5.5;3.3;;;;;;;;;;;;;
2019/06/21 01:42:40;;;;;;;4.3;3.2;;;;;;;;;;;;;
2019/06/21 01:45:07;;;;;;;3.9;2.9;;;;;;;;;;;;;
2019/06/21 01:47:33;;;;;;;4.6;3;;;;;;;;;;;;;
2019/06/21 01:49:59;;;;;;;5.6;3.1;;;;;;;;;;;;;
2019/06/21 01:52:26;;;;;;;6.8;3.3;;;;;;;;;;;;;
2019/06/21 01:54:50;;;;;;;8;3.2;;;;;;;;;;;;;
2019/06/21 01:57:14;;;;;;;5.5;3.1;;;;;;;;;;;;;
2019/06/21 01:59:44;;;;;;;4.4;3.1;;;;;;;;;;;;;
2019/06/21 02:02:07;;;;;;;5.9;3.3;;;;;;;;;;;;;
2019/06/21 02:04:32;;;;;;;4.7;3.2;;;;;;;;;;;;;
2019/06/21 02:06:59;;;;;;;4.5;3.2;;;;;;;;;;;;;
2019/06/21 02:09:28;;;;;;;5.6;3.4;;;;;;;;;;;;;
2019/06/21 02:11:56;;;;;;;6.5;3.4;;;;;;;;;;;;;
2019/06/21 02:14:16;;;;;;;4.3;3.1;;;;;;;;;;;;;
2019/06/21 02:16:42;;;;;;;3.7;2.8;;;;;;;;;;;;;
2019/06/21 02:19:06;;;;;;;5.1;3.1;;;;;;;;;;;;;
2019/06/21 02:21:32;;;;;;;5.2;2.8;;;;;;;;;;;;;
2019/06/21 02:24:00;;;;;;;4.9;2.9;;;;;;;;;;;;;
2019/06/21 02:26:25;;;;;;;4.9;2.9;;;;;;;;;;;;;
2019/06/21 02:28:48;;;;;;;4.9;3;;;;;;;;;;;;;
2019/06/21 02:31:14;;;;;;;7.5;3.6;;;;;;;;;;;;;
2019/06/21 02:33:44;;;;;;;7.1;3.9;;;;;;;;;;;;;
2019/06/21 02:36:08;;;;;;;6.8;3.7;;;;;;;;;;;;;
2019/06/21 02:38:29;;;;;;;10;4.1;;;;;;;;;;;;;
2019/06/21 02:41:00;;;;;;;8.7;4.5;;;;;;;;;;;;;
2019/06/21 02:43:27;;;;;;;7.6;4.2;;;;;;;;;;;;;
2019/06/21 02:45:54;;;;;;;9.2;4.5;;;;;;;;;;;;;
2019/06/21 02:48:18;;;;;;;6.7;3.9;;;;;;;;;;;;;
2019/06/21 02:50:42;;;;;;;9.3;3.9;;;;;;;;;;;;;
2019/06/21 02:53:09;;;;;;;5.8;3.4;;;;;;;;;;;;;
2019/06/21 02:55:37;;;;;;;6.3;3.1;;;;;;;;;;;;;
2019/06/21 02:58:02;;;;;;;5.1;2.6;;;;;;;;;;;;;
2019/06/21 03:00:25;;;;;;;3.9;2.7;;;;;;;;;;;;;
2019/06/21 03:02:51;;;;;;;3.2;2.8;;;;;;;;;;;;;
2019/06/21 03:05:16;;;;;;;5.7;3;;;;;;;;;;;;;
2019/06/21 03:07:45;;;;;;;4.7;3;;;;;;;;;;;;;
2019/06/21 03:10:12;;;;;;;4.6;3.2;;;;;;;;;;;;;
2019/06/21 03:12:39;;;;;;;5.8;2.9;;;;;;;;;;;;;
2019/06/21 03:15:01;;;;;;;4.1;2.9;;;;;;;;;;;;;
2019/06/21 03:17:31;;;;;;;3.7;2.6;;;;;;;;;;;;;
2019/06/21 03:19:58;;;;;;;3.3;2.5;;;;;;;;;;;;;
2019/06/21 03:22:28;;;;;;;3.9;2.9;;;;;;;;;;;;;
2019/06/21 03:24:52;;;;;;;5.7;3.2;;;;;;;;;;;;;
2019/06/21 03:27:14;;;;;;;3.4;2.6;;;;;;;;;;;;;
2019/06/21 03:29:40;;;;;;;5.6;2.9;;;;;;;;;;;;;
2019/06/21 03:32:12;;;;;;;3.9;2.8;;;;;;;;;;;;;
2019/06/21 03:39:29;;;;;;;4.5;2.8;;;;;;;;;;;;;
2019/06/21 03:41:56;;;;;;;5.8;2.9;;;;;;;;;;;;;
2019/06/21 03:44:19;;;;;;;4.5;2.8;;;;;;;;;;;;;
2019/06/21 03:46:44;;;;;;;4.4;2.6;;;;;;;;;;;;;
2019/06/21 03:49:10;;;;;;;3.5;2.6;;;;;;;;;;;;;
2019/06/21 03:51:37;;;;;;;4.1;2.8;;;;;;;;;;;;;
2019/06/21 03:54:02;;;;;;;4.8;2.7;;;;;;;;;;;;;
2019/06/21 03:56:39;;;;;;;4.5;2.6;;;;;;;;;;;;;
2019/06/21 03:58:56;;;;;;;3.9;2.5;;;;;;;;;;;;;
2019/06/21 04:03:05;;;;;;;3.6;2.5;;;;;;;13.25;88.14648;939.4391;;;;
2019/06/21 04:05:35;;;;;;;5.6;2.8;;;;;;;13.46;87.30273;939.3875;;;;
2019/06/21 04:08:09;;;;;;;4.9;2.8;;;;;;;13.45;87.47363;939.457;;;;
2019/06/21 04:10:45;;;;;;;3.9;2.7;;;;;;;13.83;85.69727;939.4727;;;;
2019/06/21 04:13:08;;;;;;;4.9;2.7;;;;;;;13.87;85.64746;939.5367;;;;
2019/06/21 04:15:38;;;;;;;3.4;2.8;;;;;;;13.89;85.33008;939.4709;;;;
2019/06/21 04:18:05;;;;;;;3.8;3;;;;;;;13.77;86.20508;939.4572;;;;
2019/06/21 04:20:32;;;;;;;4.4;2.7;;;;;;;14.05;85.52148;939.4366;;;;
2019/06/21 04:23:08;;;;;;;3.6;3;;;;;;;14.12;84.57031;939.4716;;;;
2019/06/21 04:25:37;;;;;;;8.2;3.1;;;;;;;14.03;84.7334;939.3926;;;;
2019/06/21 04:28:11;;;;;;;4.4;3;;;;;;;14.2;84.1582;939.4378;;;;
2019/06/21 04:30:43;;;;;;;8.2;2.8;;;;;;;14.18;83.99414;939.3714;;;;
2019/06/21 04:33:08;;;;;;;6;2.3;;;;;;;14.1;83.90918;939.4141;;;;
2019/06/21 04:35:35;;;;;;;5.2;2.7;;;;;;;14.17;84.0957;939.377;;;;
2019/06/21 04:38:02;;;;;;;5.9;2.8;;;;;;;14.19;84.26074;939.3666;;;;
2019/06/21 04:40:35;;;;;;;5.1;2.6;;;;;;;14.13;84.3877;939.3339;;;;
2019/06/21 04:43:05;;;;;;;3.7;2.6;;;;;;;14.14;84.2168;939.3203;;;;
2019/06/21 04:45:31;;;;;;;7;2.9;;;;;;;14.19;83.99512;939.3322;;;;
2019/06/21 04:48:12;;;;;;;5.1;2.8;;;;;;;14.12;84.99609;939.3179;;;;
2019/06/21 04:50:44;;;;;;;8.5;3;;;;;;;14.18;84.5;939.3546;;;;
2019/06/21 04:53:30;;;;;;;4.9;2.6;;;;;;;14.05;85.06152;939.3981;;;;
2019/06/21 04:56:14;;;;;;;3.6;2.7;;;;;;;13.92;85.73828;939.382;;;;
2019/06/21 04:58:45;;;;;;;4.5;2.6;;;;;;;14.15;86.31445;939.4091;;;;
2019/06/21 05:01:18;;;;;;;4.3;2.8;;;;;;;;;;;;;
2019/06/21 05:03:44;;;;;;;5.2;2.1;;;;;;;;;;;;;
2019/06/21 05:06:11;;;;;;;3.9;2.1;;;;;;;;;;;;;
2019/06/21 05:08:36;;;;;;;5.6;1.8;;;;;;;;;;;;;
2019/06/21 05:11:01;;;;;;;3.1;1.9;;;;;;;;;;;;;
2019/06/21 05:13:29;;;;;;;2.9;1.6;;;;;;;;;;;;;
2019/06/21 05:15:52;;;;;;;3.1;1.6;;;;;;;;;;;;;
2019/06/21 05:18:17;;;;;;;2.2;1.6;;;;;;;;;;;;;
2019/06/21 05:20:45;;;;;;;2;1.5;;;;;;;;;;;;;
2019/06/21 05:23:12;;;;;;;4.2;1.5;;;;;;;;;;;;;
2019/06/21 05:25:33;;;;;;;4.5;1.7;;;;;;;;;;;;;
2019/06/21 05:27:57;;;;;;;2.2;1.7;;;;;;;;;;;;;
2019/06/21 05:30:22;;;;;;;2.9;1.7;;;;;;;;;;;;;
2019/06/21 05:32:51;;;;;;;3.4;1.9;;;;;;;;;;;;;
2019/06/21 05:35:12;;;;;;;4.3;2.7;;;;;;;;;;;;;
2019/06/21 05:37:38;;;;;;;4.8;2.4;;;;;;;;;;;;;
2019/06/21 05:40:08;;;;;;;4.6;2;;;;;;;;;;;;;
2019/06/21 05:42:34;;;;;;;2.8;1.4;;;;;;;;;;;;;
2019/06/21 05:45:01;;;;;;;2.9;1.3;;;;;;;;;;;;;
2019/06/21 05:47:27;;;;;;;3.9;1.5;;;;;;;;;;;;;
2019/06/21 05:49:53;;;;;;;3.9;1.5;;;;;;;;;;;;;
2019/06/21 05:52:20;;;;;;;2.7;1.5;;;;;;;;;;;;;
2019/06/21 05:54:48;;;;;;;3.7;1.5;;;;;;;;;;;;;
2019/06/21 05:57:09;;;;;;;2.7;1.5;;;;;;;;;;;;;
2019/06/21 05:59:38;;;;;;;2.8;1.3;;;;;;;;;;;;;
2019/06/21 06:02:04;;;;;;;3.8;1.5;;;;;;;;;;;;;
2019/06/21 06:04:27;;;;;;;2.3;1.4;;;;;;;;;;;;;
2019/06/21 06:06:53;;;;;;;5.7;1.5;;;;;;;;;;;;;
2019/06/21 06:09:23;;;;;;;2.2;1.1;;;;;;;;;;;;;
2019/06/21 06:11:44;;;;;;;1.8;1.3;;;;;;;;;;;;;
2019/06/21 06:14:09;;;;;;;1.8;1.3;;;;;;;;;;;;;
2019/06/21 06:16:43;;;;;;;2.6;1.2;;;;;;;;;;;;;
2019/06/21 06:19:11;;;;;;;3.3;1.2;;;;;;;;;;;;;
2019/06/21 06:21:36;;;;;;;3.8;1.2;;;;;;;;;;;;;
2019/06/21 06:24:10;;;;;;;3.6;1.3;;;;;;;;;;;;;
2019/06/21 06:26:44;;;;;;;2.6;1.2;;;;;;;;;;;;;
2019/06/21 06:29:10;;;;;;;2.5;1.6;;;;;;;;;;;;;
2019/06/21 06:31:34;;;;;;;2.1;1.4;;;;;;;;;;;;;
2019/06/21 06:33:58;;;;;;;4.8;1.3;;;;;;;;;;;;;
2019/06/21 06:36:24;;;;;;;4.8;1.3;;;;;;;;;;;;;
2019/06/21 06:38:52;;;;;;;3;1.2;;;;;;;;;;;;;
2019/06/21 06:41:15;;;;;;;1.8;1.1;;;;;;;;;;;;;
2019/06/21 06:43:43;;;;;;;3.3;1.3;;;;;;;;;;;;;
2019/06/21 06:46:09;;;;;;;2.5;1.4;;;;;;;;;;;;;
2019/06/21 06:48:35;;;;;;;3;1.3;;;;;;;;;;;;;
2019/06/21 06:51:00;;;;;;;2.1;1.2;;;;;;;;;;;;;
2019/06/21 06:53:29;;;;;;;4.2;2.6;;;;;;;;;;;;;
2019/06/21 06:55:55;;;;;;;2.4;1.5;;;;;;;;;;;;;
2019/06/21 06:58:19;;;;;;;3.8;1.3;;;;;;;;;;;;;
2019/06/21 07:00:52;;;;;;;3.2;1.2;;;;;;;;;;;;;
2019/06/21 07:03:10;;;;;;;3.6;1.1;;;;;;;;;;;;;
2019/06/21 07:05:36;;;;;;;1.7;1.1;;;;;;;;;;;;;
2019/06/21 07:11:00;;;;;;;2.6;1.2;;;;;;;;;;;;;
2019/06/21 07:13:23;;;;;;;5.3;1.3;;;;;;;;;;;;;
2019/06/21 07:15:49;;;;;;;3.7;1.4;;;;;;;;;;;;;
2019/06/21 07:18:21;;;;;;;2.1;1.4;;;;;;;;;;;;;
2019/06/21 07:20:43;;;;;;;3.8;1.5;;;;;;;;;;;;;
2019/06/21 07:23:13;;;;;;;2;1.3;;;;;;;;;;;;;
2019/06/21 07:25:35;;;;;;;1.3;1.1;;;;;;;;;;;;;
2019/06/21 07:28:00;;;;;;;1.6;1.3;;;;;;;;;;;;;
2019/06/21 07:30:28;;;;;;;2.4;1.4;;;;;;;;;;;;;
2019/06/21 07:32:52;;;;;;;2.8;1.3;;;;;;;;;;;;;
2019/06/21 07:35:18;;;;;;;1.8;1.3;;;;;;;;;;;;;
2019/06/21 07:37:43;;;;;;;2.3;1.4;;;;;;;;;;;;;
2019/06/21 07:40:10;;;;;;;3.2;1.3;;;;;;;;;;;;;
2019/06/21 07:42:36;;;;;;;2.9;1.1;;;;;;;;;;;;;
2019/06/21 07:45:02;;;;;;;2.7;1.1;;;;;;;;;;;;;
2019/06/21 07:47:29;;;;;;;3.1;1;;;;;;;;;;;;;
2019/06/21 07:49:53;;;;;;;3.2;1.2;;;;;;;;;;;;;
2019/06/21 07:52:17;;;;;;;3.2;1;;;;;;;;;;;;;
2019/06/21 07:54:43;;;;;;;2.5;1.3;;;;;;;;;;;;;
2019/06/21 07:57:13;;;;;;;2.8;0.9;;;;;;;;;;;;;
2019/06/21 07:59:37;;;;;;;3.8;1.1;;;;;;;;;;;;;
2019/06/21 08:02:06;;;;;;;4.1;1;;;;;;;;;;;;;
2019/06/21 08:04:30;;;;;;;3.2;1.1;;;;;;;;;;;;;
2019/06/21 08:06:55;;;;;;;1.7;1.1;;;;;;;;;;;;;
2019/06/21 08:09:29;;;;;;;2.2;0.9;;;;;;;;;;;;;
2019/06/21 08:11:49;;;;;;;2;1;;;;;;;;;;;;;
2019/06/21 08:14:12;;;;;;;1.1;0.9;;;;;;;;;;;;;
2019/06/21 08:16:44;;;;;;;4.3;1.1;;;;;;;;;;;;;
2019/06/21 08:19:12;;;;;;;2.8;1;;;;;;;;;;;;;
2019/06/21 08:21:41;;;;;;;2.4;0.9;;;;;;;;;;;;;
2019/06/21 08:24:08;;;;;;;5.4;0.9;;;;;;;;;;;;;
2019/06/21 08:26:36;;;;;;;3.7;0.9;;;;;;;;;;;;;
2019/06/21 08:28:59;;;;;;;2.6;0.9;;;;;;;;;;;;;
2019/06/21 08:31:25;;;;;;;6.3;1.2;;;;;;;;;;;;;
2019/06/21 08:33:53;;;;;;;3.9;1;;;;;;;;;;;;;
2019/06/21 08:36:21;;;;;;;2.7;1;;;;;;;;;;;;;
2019/06/21 08:38:45;;;;;;;3.6;1.1;;;;;;;;;;;;;
2019/06/21 08:41:18;;;;;;;4.1;1;;;;;;;;;;;;;
2019/06/21 08:43:37;;;;;;;4.9;1.4;;;;;;;;;;;;;
2019/06/21 08:46:02;;;;;;;2.2;0.9;;;;;;;;;;;;;
2019/06/21 08:48:27;;;;;;;3.8;1;;;;;;;;;;;;;
2019/06/21 08:51:00;;;;;;;2;1.1;;;;;;;;;;;;;
2019/06/21 08:53:19;;;;;;;2.3;0.9;;;;;;;;;;;;;
2019/06/21 08:55:46;;;;;;;2;1;;;;;;;;;;;;;
2019/06/21 08:58:14;;;;;;;2.9;1.1;;;;;;;;;;;;;
2019/06/21 09:00:39;;;;;;;4.1;1.2;;;;;;;;;;;;;
2019/06/21 09:03:06;;;;;;;3.2;1.1;;;;;;;;;;;;;
2019/06/21 09:05:36;;;;;;;2.3;1;;;;;;;;;;;;;
2019/06/21 09:07:59;;;;;;;3.9;1.4;;;;;;;;;;;;;
2019/06/21 09:10:31;;;;;;;2.4;1.5;;;;;;;;;;;;;
2019/06/21 09:12:59;;;;;;;1.4;1;;;;;;;;;;;;;
2019/06/21 09:15:35;;;;;;;1.7;1;;;;;;;;;;;;;
2019/06/21 09:17:47;;;;;;;1.9;1.1;;;;;;;;;;;;;
2019/06/21 09:20:14;;;;;;;1.9;1.2;;;;;;;;;;;;;
2019/06/21 09:22:42;;;;;;;3.9;1.2;;;;;;;;;;;;;
2019/06/21 09:25:07;;;;;;;2.3;1.4;;;;;;;;;;;;;
2019/06/21 09:27:32;;;;;;;5.7;1.3;;;;;;;;;;;;;
2019/06/21 09:30:00;;;;;;;3.3;1.4;;;;;;;;;;;;;
2019/06/21 09:32:24;;;;;;;2.8;1.2;;;;;;;;;;;;;
2019/06/21 09:34:56;;;;;;;4.2;1.2;;;;;;;;;;;;;
2019/06/21 09:37:20;;;;;;;1.6;1.1;;;;;;;;;;;;;
2019/06/21 09:39:46;;;;;;;3.1;1.3;;;;;;;;;;;;;
2019/06/21 09:42:14;;;;;;;1.8;1.2;;;;;;;;;;;;;
2019/06/21 09:44:38;;;;;;;3.9;1.4;;;;;;;;;;;;;
2019/06/21 09:47:05;;;;;;;4.5;1.6;;;;;;;;;;;;;
2019/06/21 09:49:32;;;;;;;3.2;1.3;;;;;;;;;;;;;
2019/06/21 09:51:57;;;;;;;2.5;1.3;;;;;;;;;;;;;
2019/06/21 09:54:25;;;;;;;1.6;1.1;;;;;;;;;;;;;
2019/06/21 09:56:50;;;;;;;3.5;1.3;;;;;;;;;;;;;
2019/06/21 09:59:15;;;;;;;3.7;1.4;;;;;;;;;;;;;
2019/06/21 10:01:40;;;;;;;3;1.3;;;;;;;;;;;;;
2019/06/21 10:04:12;;;;;;;1.7;1.3;;;;;;;;;;;;;
2019/06/21 10:06:31;;;;;;;5;1.4;;;;;;;;;;;;;
2019/06/21 10:08:57;;;;;;;3.7;2;;;;;;;;;;;;;
2019/06/21 10:11:26;;;;;;;10.6;3.8;;;;;;;;;;;;;
2019/06/21 10:13:55;;;;;;;20.6;7.2;;;;;;;;;;;;;
2019/06/21 10:16:22;;;;;;;6.1;2.7;;;;;;;;;;;;;
2019/06/21 10:18:48;;;;;;;6;2.9;;;;;;;;;;;;;
2019/06/21 10:21:20;;;;;;;8.3;3.9;;;;;;;;;;;;;
2019/06/21 10:23:49;;;;;;;16.7;5.7;;;;;;;;;;;;;
2019/06/21 10:26:13;;;;;;;14.3;4.8;;;;;;;;;;;;;
2019/06/21 10:28:46;;;;;;;8.9;3.1;;;;;;;;;;;;;
2019/06/21 10:31:14;;;;;;;3.9;1.8;;;;;;;;;;;;;
2019/06/21 10:33:42;;;;;;;9.9;3.9;;;;;;;;;;;;;
2019/06/21 10:36:07;;;;;;;8.4;3.2;;;;;;;;;;;;;
2019/06/21 10:38:33;;;;;;;9.7;3.7;;;;;;;;;;;;;
2019/06/21 10:41:00;;;;;;;14;4.9;;;;;;;;;;;;;
2019/06/21 10:43:26;;;;;;;3.8;1.7;;;;;;;;;;;;;
2019/06/21 10:45:49;;;;;;;3;1.4;;;;;;;;;;;;;
2019/06/21 10:48:13;;;;;;;3;1.5;;;;;;;;;;;;;
2019/06/21 10:50:40;;;;;;;2.7;1.4;;;;;;;;;;;;;
2019/06/21 10:53:13;;;;;;;3.2;1.5;;;;;;;;;;;;;
2019/06/21 10:55:32;;;;;;;2.4;1.4;;;;;;;;;;;;;
2019/06/21 10:57:57;;;;;;;4.6;1.7;;;;;;;;;;;;;
2019/06/21 11:00:26;;;;;;;3;1.7;;;;;;;;;;;;;
2019/06/21 11:02:51;;;;;;;3.7;1.4;;;;;;;;;;;;;
2019/06/21 11:05:14;;;;;;;3.8;1.6;;;;;;;;;;;;;
2019/06/21 11:07:47;;;;;;;4.3;1.5;;;;;;;;;;;;;
2019/06/21 11:10:22;;;;;;;2.6;1.7;;;;;;;;;;;;;
2019/06/21 11:12:45;;;;;;;2.9;1.6;;;;;;;;;;;;;
2019/06/21 11:15:16;;;;;;;3.3;1.6;;;;;;;;;;;;;
2019/06/21 11:17:42;;;;;;;2.8;1.7;;;;;;;;;;;;;
2019/06/21 11:20:14;;;;;;;5;1.5;;;;;;;;;;;;;
2019/06/21 11:22:52;;;;;;;2.6;1.8;;;;;;;;;;;;;
2019/06/21 11:25:20;;;;;;;5.5;2.2;;;;;;;;;;;;;
2019/06/21 11:27:47;;;;;;;3;1.7;;;;;;;;;;;;;
2019/06/21 11:30:12;;;;;;;3.5;1.9;;;;;;;;;;;;;
2019/06/21 11:32:42;;;;;;;5.5;2.7;;;;;;;;;;;;;
2019/06/21 11:35:02;;;;;;;4.2;2.1;;;;;;;;;;;;;
2019/06/21 11:37:30;;;;;;;4.5;1.9;;;;;;;;;;;;;
2019/06/21 11:39:55;;;;;;;3.3;2;;;;;;;;;;;;;
2019/06/21 11:42:22;;;;;;;4;2;;;;;;;;;;;;;
2019/06/21 11:44:52;;;;;;;4;1.9;;;;;;;;;;;;;
2019/06/21 11:47:19;;;;;;;3.9;1.9;;;;;;;;;;;;;
2019/06/21 11:49:44;;;;;;;2.7;1.7;;;;;;;;;;;;;
2019/06/21 11:52:07;;;;;;;3.9;1.9;;;;;;;;;;;;;
2019/06/21 11:54:37;;;;;;;2.3;1.6;;;;;;;;;;;;;
2019/06/21 11:57:01;;;;;;;4.4;2;;;;;;;;;;;;;
2019/06/21 11:59:29;;;;;;;3.3;2;;;;;;;;;;;;;
2019/06/21 12:01:55;;;;;;;6.3;2.4;;;;;;;;;;;;;
2019/06/21 12:04:19;;;;;;;4.2;2;;;;;;;;;;;;;
2019/06/21 12:06:47;;;;;;;3;1.8;;;;;;;;;;;;;
2019/06/21 12:09:14;;;;;;;4.3;1.9;;;;;;;;;;;;;
2019/06/21 12:11:38;;;;;;;3.8;2;;;;;;;;;;;;;
2019/06/21 12:14:05;;;;;;;3.2;1.7;;;;;;;;;;;;;
2019/06/21 12:16:35;;;;;;;3.8;1.8;;;;;;;;;;;;;
2019/06/21 12:19:00;;;;;;;4.3;2.2;;;;;;;;;;;;;
2019/06/21 12:21:22;;;;;;;2.7;1.8;;;;;;;;;;;;;
2019/06/21 12:23:46;;;;;;;6.6;2;;;;;;;;;;;;;
2019/06/21 12:26:10;;;;;;;2.8;2;;;;;;;;;;;;;
2019/06/21 12:28:42;;;;;;;6.4;2.2;;;;;;;;;;;;;
2019/06/21 12:31:03;;;;;;;2.6;1.4;;;;;;;;;;;;;
2019/06/21 12:38:28;;;;;;;7.5;3.7;;;;;;;;;;;;;
2019/06/21 12:40:53;;;;;;;7.2;2.6;;;;;;;;;;;;;
2019/06/21 12:43:24;;;;;;;8.6;4.5;;;;;;;;;;;;;
2019/06/21 12:45:53;;;;;;;7.5;4.5;;;;;;;;;;;;;
2019/06/21 12:48:18;;;;;;;3;1.9;;;;;;;;;;;;;
2019/06/21 12:50:54;;;;;;;5.2;2;;;;;;;;;;;;;
2019/06/21 12:53:14;;;;;;;3;2.1;;;;;;;;;;;;;
2019/06/21 12:55:39;;;;;;;5.4;2.6;;;;;;;;;;;;;
2019/06/21 12:58:24;;;;;;;7.1;3.2;;;;;;;;;;;;;
2019/06/21 13:00:43;;;;;;;6.4;3.1;;;;;;;;;;;;;
2019/06/21 13:03:10;;;;;;;3.5;1.6;;;;;;;;;;;;;
2019/06/21 13:05:37;;;;;;;4.4;1.7;;;;;;;;;;;;;
2019/06/21 13:08:03;;;;;;;4;1.7;;;;;;;;;;;;;
2019/06/21 13:10:25;;;;;;;4.7;1.5;;;;;;;;;;;;;
2019/06/21 13:12:52;;;;;;;3.5;1.6;;;;;;;;;;;;;
2019/06/21 13:15:18;;;;;;;5.2;1.7;;;;;;;;;;;;;
2019/06/21 13:17:46;;;;;;;4.5;1.6;;;;;;;;;;;;;
2019/06/21 13:20:17;;;;;;;4.1;1.6;;;;;;;;;;;;;
2019/06/21 13:22:37;;;;;;;9.3;2.1;;;;;;;;;;;;;
2019/06/21 13:25:04;;;;;;;8.1;2;;;;;;;;;;;;;
2019/06/21 13:27:27;;;;;;;3.2;1.6;;;;;;;;;;;;;
2019/06/21 13:29:54;;;;;;;4;1.5;;;;;;;;;;;;;
2019/06/21 13:32:17;;;;;;;3.4;1.4;;;;;;;;;;;;;
2019/06/21 13:34:43;;;;;;;3;1.6;;;;;;;;;;;;;
2019/06/21 13:37:09;;;;;;;3.3;1.5;;;;;;;;;;;;;
2019/06/21 13:39:36;;;;;;;2.5;1.5;;;;;;;;;;;;;
2019/06/21 13:42:01;;;;;;;3.4;1.4;;;;;;;;;;;;;
2019/06/21 13:44:27;;;;;;;3.2;1.5;;;;;;;;;;;;;
2019/06/21 13:46:56;;;;;;;2.3;1.4;;;;;;;;;;;;;
2019/06/21 13:49:19;;;;;;;1.9;1.3;;;;;;;;;;;;;
2019/06/21 13:51:43;;;;;;;4.7;1.5;;;;;;;;;;;;;
2019/06/21 13:54:08;;;;;;;4.6;1.7;;;;;;;;;;;;;
2019/06/21 13:56:36;;;;;;;2.4;1.3;;;;;;;;;;;;;
2019/06/21 13:59:00;;;;;;;2.4;1.5;;;;;;;;;;;;;
2019/06/21 14:01:26;;;;;;;5.5;1.7;;;;;;;;;;;;;
2019/06/21 14:03:49;;;;;;;6.6;1.6;;;;;;;;;;;;;
2019/06/21 14:06:21;;;;;;;3.7;1.5;;;;;;;;;;;;;
2019/06/21 14:08:49;;;;;;;4.7;1.5;;;;;;;;;;;;;
2019/06/21 14:11:12;;;;;;;3.7;1.5;;;;;;;;;;;;;
2019/06/21 14:13:37;;;;;;;4.2;1.8;;;;;;;;;;;;;
2019/06/21 14:16:09;;;;;;;4.4;1.3;;;;;;;;;;;;;
2019/06/21 14:18:38;;;;;;;3.3;0.9;;;;;;;;;;;;;
2019/06/21 14:21:05;;;;;;;1.6;1;;;;;;;;;;;;;
2019/06/21 14:23:28;;;;;;;1.2;0.9;;;;;;;;;;;;;
2019/06/21 14:25:52;;;;;;;1.3;0.7;;;;;;;;;;;;;
2019/06/21 14:28:26;;;;;;;1.1;0.6;;;;;;;;;;;;;
2019/06/21 14:30:44;;;;;;;2;0.7;;;;;;;;;;;;;
2019/06/21 14:33:10;;;;;;;10.1;0.9;;;;;;;;;;;;;
2019/06/21 14:35:41;;;;;;;5;0.9;;;;;;;;;;;;;
2019/06/21 14:38:07;;;;;;;11.2;1.4;;;;;;;;;;;;;
2019/06/21 14:40:36;;;;;;;6.5;1.3;;;;;;;;;;;;;
2019/06/21 14:43:01;;;;;;;2.7;1.2;;;;;;;;;;;;;
2019/06/21 14:45:33;;;;;;;2.3;1.2;;;;;;;;;;;;;
2019/06/21 14:47:59;;;;;;;2.4;1.3;;;;;;;;;;;;;
2019/06/21 14:50:26;;;;;;;1.8;1.4;;;;;;;;;;;;;
2019/06/21 14:52:54;;;;;;;2.5;1.6;;;;;;;;;;;;;
2019/06/21 14:55:23;;;;;;;2.4;1.7;;;;;;;;;;;;;
2019/06/21 14:57:48;;;;;;;2.7;1.8;;;;;;;;;;;;;
2019/06/21 15:00:13;;;;;;;7.3;2.7;;;;;;;;;;;;;
2019/06/21 15:02:39;;;;;;;6.6;2.8;;;;;;;;;;;;;
2019/06/21 15:05:06;;;;;;;6.7;3;;;;;;;;;;;;;
2019/06/21 15:07:30;;;;;;;5.9;2.4;;;;;;;;;;;;;
2019/06/21 15:09:53;;;;;;;4.3;2.3;;;;;;;;;;;;;
2019/06/21 15:12:19;;;;;;;4.8;2.3;;;;;;;;;;;;;
2019/06/21 15:14:48;;;;;;;6;2.5;;;;;;;;;;;;;
2019/06/21 15:17:09;;;;;;;4.2;2.2;;;;;;;;;;;;;
2019/06/21 15:19:34;;;;;;;3.2;2.5;;;;;;;;;;;;;
2019/06/21 15:22:05;;;;;;;6.1;3;;;;;;;;;;;;;
2019/06/21 15:24:39;;;;;;;5.6;4.1;;;;;;;;;;;;;
2019/06/21 15:27:02;;;;;;;8.1;3.2;;;;;;;;;;;;;
2019/06/21 15:29:26;;;;;;;6.8;3.5;;;;;;;;;;;;;
2019/06/21 15:31:52;;;;;;;8.5;3.4;;;;;;;;;;;;;
2019/06/21 15:34:18;;;;;;;4.3;2.7;;;;;;;;;;;;;
2019/06/21 15:36:45;;;;;;;7.3;3.8;;;;;;;;;;;;;
2019/06/21 15:39:11;;;;;;;7;3.5;;;;;;;;;;;;;
2019/06/21 15:41:36;;;;;;;5.4;3;;;;;;;;;;;;;
2019/06/21 15:44:02;;;;;;;5.9;3.2;;;;;;;;;;;;;
2019/06/21 15:46:29;;;;;;;3.7;2.4;;;;;;;;;;;;;
2019/06/21 15:48:54;;;;;;;4.3;2.4;;;;;;;;;;;;;
2019/06/21 15:51:20;;;;;;;5.7;3;;;;;;;;;;;;;
2019/06/21 15:53:44;;;;;;;5.3;2.4;;;;;;;;;;;;;
2019/06/21 15:56:11;;;;;;;6.4;3;;;;;;;;;;;;;
2019/06/21 15:58:40;;;;;;;6.8;2.9;;;;;;;;;;;;;
2019/06/21 16:01:08;;;;;;;8;4.6;;;;;;;;;;;;;
2019/06/21 16:03:30;;;;;;;5.7;3.7;;;;;;;;;;;;;
2019/06/21 16:05:55;;;;;;;5.8;3.9;;;;;;;;;;;;;
2019/06/21 16:08:29;;;;;;;6.4;4.1;;;;;;;;;;;;;
2019/06/21 16:10:50;;;;;;;10;4.8;;;;;;;;;;;;;
2019/06/21 16:13:26;;;;;;;6;4.1;;;;;;;;;;;;;
2019/06/21 16:15:59;;;;;;;8.3;4.8;;;;;;;;;;;;;
2019/06/21 16:18:21;;;;;;;6.1;5.2;;;;;;;;;;;;;
2019/06/21 16:20:51;;;;;;;7.7;5.7;;;;;;;;;;;;;
2019/06/21 16:23:16;;;;;;;6;4;;;;;;;;;;;;;
2019/06/21 16:25:40;;;;;;;5.2;3.9;;;;;;;;;;;;;
2019/06/21 16:28:11;;;;;;;7.3;4.9;;;;;;;;;;;;;
2019/06/21 16:30:34;;;;;;;7.5;4.7;;;;;;;;;;;;;
2019/06/21 16:32:58;;;;;;;9.2;5.8;;;;;;;;;;;;;
2019/06/21 16:35:25;;;;;;;6.9;4.7;;;;;;;;;;;;;
2019/06/21 16:37:53;;;;;;;5.2;4.3;;;;;;;;;;;;;
2019/06/21 16:40:13;;;;;;;8.1;3.5;;;;;;;;;;;;;
2019/06/21 16:42:39;;;;;;;5.8;3.8;;;;;;;;;;;;;
2019/06/21 16:45:05;;;;;;;4.2;2.5;;;;;;;;;;;;;
2019/06/21 16:47:30;;;;;;;4.4;2.7;;;;;;;;;;;;;
2019/06/21 16:49:54;;;;;;;5.2;2.5;;;;;;;;;;;;;
2019/06/21 16:52:22;;;;;;;3.7;2.3;;;;;;;;;;;;;
2019/06/21 16:54:45;;;;;;;4.9;2.8;;;;;;;;;;;;;
2019/06/21 16:57:12;;;;;;;8.5;3;;;;;;;;;;;;;
2019/06/21 16:59:38;;;;;;;5;3;;;;;;;;;;;;;
2019/06/21 17:02:05;;;;;;;4.5;2.6;;;;;;;;;;;;;
2019/06/21 17:04:30;;;;;;;5.9;2.6;;;;;;;;;;;;;
2019/06/21 17:07:01;;;;;;;4.4;2.2;;;;;;;;;;;;;
2019/06/21 17:09:26;;;;;;;4.8;2.6;;;;;;;;;;;;;
2019/06/21 17:11:57;;;;;;;5.9;3.1;;;;;;;;;;;;;
2019/06/21 17:14:19;;;;;;;4.7;3.1;;;;;;;;;;;;;
2019/06/21 17:16:45;;;;;;;4;2.9;;;;;;;;;;;;;
2019/06/21 17:19:12;;;;;;;4.6;3.1;;;;;;;;;;;;;
2019/06/21 17:21:38;;;;;;;5.9;3.1;;;;;;;;;;;;;
2019/06/21 17:24:02;;;;;;;4.6;3.2;;;;;;;;;;;;;
2019/06/21 17:26:36;;;;;;;3.8;3.2;;;;;;;;;;;;;
2019/06/21 17:28:57;;;;;;;5;4.3;;;;;;;;;;;;;
2019/06/21 17:31:28;;;;;;;6.2;4.6;;;;;;;;;;;;;
2019/06/21 17:33:53;;;;;;;6;4.8;;;;;;;;;;;;;
2019/06/21 17:36:17;;;;;;;5.8;4.9;;;;;;;;;;;;;
2019/06/21 17:38:46;;;;;;;9;3.6;;;;;;;;;;;;;
2019/06/21 17:41:08;;;;;;;6.8;3.5;;;;;;;;;;;;;
2019/06/21 17:43:36;;;;;;;5.3;3.5;;;;;;;;;;;;;
2019/06/21 17:46:01;;;;;;;4.7;3.2;;;;;;;;;;;;;
2019/06/21 17:48:28;;;;;;;4.5;3.2;;;;;;;;;;;;;
2019/06/21 17:50:50;;;;;;;4.1;3.2;;;;;;;;;;;;;
2019/06/21 17:53:16;;;;;;;6.6;3.4;;;;;;;;;;;;;
2019/06/21 17:55:48;;;;;;;5.5;3.8;;;;;;;;;;;;;
2019/06/21 17:58:10;;;;;;;4.4;2.3;;;;;;;;;;;;;
2019/06/21 18:00:34;;;;;;;5.6;2.6;;;;;;;;;;;;;
2019/06/21 18:03:03;;;;;;;5.2;3.3;;;;;;;;;;;;;
2019/06/21 18:05:30;;;;;;;4.6;3.2;;;;;;;;;;;;;
2019/06/21 18:07:57;;;;;;;7.5;3.7;;;;;;;;;;;;;
2019/06/21 18:10:20;;;;;;;6;4.3;;;;;;;;;;;;;
2019/06/21 18:12:47;;;;;;;5.5;3.9;;;;;;;;;;;;;
2019/06/21 18:15:11;;;;;;;7.3;4;;;;;;;;;;;;;
2019/06/21 18:17:38;;;;;;;6.5;3.9;;;;;;;;;;;;;
2019/06/21 18:20:11;;;;;;;6.6;4.8;;;;;;;;;;;;;
2019/06/21 18:22:38;;;;;;;6.9;5.3;;;;;;;;;;;;;
2019/06/21 18:25:06;;;;;;;7.7;5.9;;;;;;;;;;;;;
2019/06/21 18:27:29;;;;;;;8.9;5.7;;;;;;;;;;;;;
2019/06/21 18:29:55;;;;;;;6.7;5;;;;;;;;;;;;;
2019/06/21 18:32:19;;;;;;;7.1;5.8;;;;;;;;;;;;;
2019/06/21 18:34:48;;;;;;;7.1;5.1;;;;;;;;;;;;;
2019/06/21 18:37:13;;;;;;;7.6;5.7;;;;;;;;;;;;;
2019/06/21 18:39:38;;;;;;;7.8;5;;;;;;;;;;;;;
2019/06/21 18:42:05;;;;;;;4.3;3.8;;;;;;;;;;;;;
2019/06/21 18:44:29;;;;;;;4.4;3.6;;;;;;;;;;;;;
2019/06/21 18:47:03;;;;;;;5.3;3;;;;;;;;;;;;;
2019/06/21 18:49:27;;;;;;;3.9;2.8;;;;;;;;;;;;;
2019/06/21 18:51:51;;;;;;;4.7;2.9;;;;;;;;;;;;;
2019/06/21 18:54:19;;;;;;;4.7;2.8;;;;;;;;;;;;;
2019/06/21 18:56:46;;;;;;;5.7;2.9;;;;;;;;;;;;;
2019/06/21 18:59:08;;;;;;;4.8;3.1;;;;;;;;;;;;;
2019/06/21 19:01:36;;;;;;;5.5;4.9;;;;;;;;;;;;;
2019/06/21 19:03:59;;;;;;;5.2;4.6;;;;;;;;;;;;;
2019/06/21 19:06:27;;;;;;;7.2;4;;;;;;;;;;;;;
2019/06/21 19:08:55;;;;;;;5.9;4.3;;;;;;;;;;;;;
2019/06/21 19:11:18;;;;;;;7.2;4.1;;;;;;;;;;;;;
2019/06/21 19:13:46;;;;;;;6.6;3.8;;;;;;;;;;;;;
2019/06/21 19:16:11;;;;;;;5.6;4.6;;;;;;;;;;;;;
2019/06/21 19:18:37;;;;;;;6.8;4.7;;;;;;;;;;;;;
2019/06/21 19:21:02;;;;;;;8.1;4.2;;;;;;;;;;;;;
2019/06/21 19:23:35;;;;;;;6.7;5.1;;;;;;;;;;;;;
2019/06/21 19:25:56;;;;;;;5.1;4.2;;;;;;;;;;;;;
2019/06/21 19:28:21;;;;;;;4.3;2.7;;;;;;;;;;;;;
2019/06/21 19:35:43;;;;;;;4;2.7;;;;;;;;;;;;;
2019/06/21 19:38:12;;;;;;;3.5;2.3;;;;;;;;;;;;;
2019/06/21 19:40:34;;;;;;;3.9;2.2;;;;;;;;;;;;;
2019/06/21 19:42:58;;;;;;;4;2.3;;;;;;;;;;;;;
2019/06/21 19:45:27;;;;;;;3.8;2.1;;;;;;;;;;;;;
2019/06/21 19:47:57;;;;;;;3.1;2.1;;;;;;;;;;;;;
2019/06/21 19:50:26;;;;;;;5.2;2;;;;;;;;;;;;;
2019/06/21 19:52:53;;;;;;;2.6;1.9;;;;;;;;;;;;;
2019/06/21 19:55:16;;;;;;;2.3;1.8;;;;;;;;;;;;;
2019/06/21 19:57:45;;;;;;;2.3;1.8;;;;;;;;;;;;;
2019/06/21 20:00:12;;;;;;;3.6;2.4;;;;;;;;;;;;;
2019/06/21 20:02:38;;;;;;;3.8;3;;;;;;;;;;;;;
2019/06/21 20:05:07;;;;;;;5.3;2.7;;;;;;;;;;;;;
2019/06/21 20:07:35;;;;;;;4.7;3;;;;;;;;;;;;;
2019/06/21 20:10:06;;;;;;;5.4;3.2;;;;;;;;;;;;;
2019/06/21 20:12:30;;;;;;;4.5;3.1;;;;;;;;;;;;;
2019/06/21 20:15:02;;;;;;;4.4;2.9;;;;;;;;;;;;;
2019/06/21 20:17:20;;;;;;;5;3.3;;;;;;;;;;;;;
2019/06/21 20:19:46;;;;;;;4.5;2.9;;;;;;;;;;;;;
2019/06/21 20:22:11;;;;;;;4.3;2.9;;;;;;;;;;;;;
2019/06/21 20:24:38;;;;;;;4.2;3.4;;;;;;;;;;;;;
2019/06/21 20:27:04;;;;;;;5;3.3;;;;;;;;;;;;;
2019/06/21 20:29:32;;;;;;;3.6;3.3;;;;;;;;;;;;;
2019/06/21 20:31:59;;;;;;;5.1;3.6;;;;;;;;;;;;;
2019/06/21 20:34:24;;;;;;;6.4;4.2;;;;;;;;;;;;;
2019/06/21 20:36:58;;;;;;;4.1;3.7;;;;;;;;;;;;;
2019/06/21 20:39:27;;;;;;;5.8;4.2;;;;;;;;;;;;;